createdAt,value
2022-07-29T00:00:02.583Z,98443.25
2022-07-29T00:02:33.135Z,98425.94
2022-07-29T00:05:00.179Z,98420.47
2022-07-29T00:07:27.326Z,98443.25
2022-07-29T00:09:54.175Z,98450.31
2022-07-29T00:12:26.265Z,98455.22
2022-07-29T00:14:57.929Z,98440.03
2022-07-29T00:17:25.636Z,98455.81
2022-07-29T00:19:52.787Z,98445.81
2022-07-29T00:22:21.057Z,98444.88
2022-07-29T00:24:51.002Z,98449.81
2022-07-29T00:27:18.373Z,98444.03
2022-07-29T00:29:45.288Z,98439.25
2022-07-29T00:32:12.246Z,98440.81
2022-07-29T00:34:57.527Z,98445.59
2022-07-29T00:37:24.593Z,98440.38
2022-07-29T00:39:51.445Z,98438.84
2022-07-29T00:42:18.377Z,98441.97
2022-07-29T00:44:45.165Z,98442.53
2022-07-29T00:47:13.206Z,98440.31
2022-07-29T00:49:42.214Z,98431.88
2022-07-29T00:52:10.866Z,98433.84
2022-07-29T00:54:44.751Z,98439.19
2022-07-29T00:57:12.709Z,98429.44
2022-07-29T00:59:39.628Z,98411.00
2022-07-29T01:02:06.905Z,98426.06
2022-07-29T01:04:34.067Z,98419.31
2022-07-29T01:07:04.655Z,98423.84
2022-07-29T01:09:35.001Z,98420.88
2022-07-29T01:12:19.944Z,98410.34
2022-07-29T01:14:48.753Z,98423.00
2022-07-29T01:17:23.119Z,98427.22
2022-07-29T01:20:02.293Z,98435.25
2022-07-29T01:22:34.764Z,98436.25
2022-07-29T01:25:23.058Z,98446.78
2022-07-29T01:28:12.710Z,98436.09
2022-07-29T01:30:43.235Z,98438.78
2022-07-29T01:33:35.024Z,98421.63
2022-07-29T01:36:11.617Z,98428.25
2022-07-29T01:38:42.370Z,98431.22
2022-07-29T01:41:13.066Z,98416.56
2022-07-29T01:43:50.620Z,98415.16
2022-07-29T01:46:25.679Z,98422.75
2022-07-29T01:49:01.236Z,98407.69
2022-07-29T01:51:41.454Z,98410.81
2022-07-29T01:54:14.306Z,98403.34
2022-07-29T01:56:43.721Z,98395.34
2022-07-29T01:59:11.398Z,98388.19
2022-07-29T02:01:41.856Z,98377.28
2022-07-29T02:04:12.454Z,98383.38
2022-07-29T02:06:59.837Z,98358.03
2022-07-29T02:09:27.710Z,98375.50
2022-07-29T02:11:56.284Z,98392.38
2022-07-29T02:14:24.620Z,98379.03
2022-07-29T02:16:55.169Z,98388.28
2022-07-29T02:19:24.486Z,98385.78
2022-07-29T02:21:54.753Z,98393.78
2022-07-29T02:24:23.682Z,98400.53
2022-07-29T02:26:52.033Z,98396.47
2022-07-29T02:29:22.917Z,98396.88
2022-07-29T02:31:51.738Z,98399.97
2022-07-29T02:34:20.471Z,98383.63
2022-07-29T02:36:50.538Z,98383.78
2022-07-29T02:39:19.297Z,98391.50
2022-07-29T02:41:49.879Z,98395.69
2022-07-29T02:44:22.515Z,98380.53
2022-07-29T02:46:55.720Z,98387.09
2022-07-29T02:49:36.107Z,98380.50
2022-07-29T02:52:09.631Z,98376.00
2022-07-29T02:54:45.687Z,98390.31
2022-07-29T02:57:22.816Z,98385.53
2022-07-29T02:59:53.944Z,98384.41
2022-07-29T03:02:22.445Z,98386.94
2022-07-29T03:04:50.837Z,98370.50
